Fiskdale, MA (01518)

1:21 PM EDT on August 30, 2015 (GMT -0400)
Sturbridge | | Change Station
CLOSE
Current Station
Personal Weather Station
Location: Fiskdale, MA
Elevation: 722 ft
Nearby Weather Stations

Elev 722 ft 42.13 °N, 72.10 °W | Updated 1 minute ago

Mostly Cloudy
Mostly Cloudy
78.5 °F
Feels Like 80 °F
N
4.0
Wind Variable Wind from WSW
Gusts 4.0 mph

Today
High -- | Low -- °F
--% Chance of Precip.
Yesterday
High -- | Low -- °F
Precip. -- in
6:11 AM 7:26 PM
Full, 99% visible
Pressure 30.09 in
Visibility 10.0 miles
Clouds Mostly Cloudy 8000 ft
Heat Index 80 °F
Dew Point 63 °F
Humidity 59%
Rainfall 0.00 in
Snow Depth Not available.
UV 5 out of 12
Pollen 10.30 out of 12
Air Quality Not available.
Flu Activity Not available.
METAR KORH 301654Z 28007KT 10SM BKN080 26/16 A3010 RMK AO2 SLP188 T02610156
Pressure 30.09 in
Visibility 10.0 miles
Clouds Mostly Cloudy 8000 ft
Heat Index 80 °F
Dew Point 63 °F
Humidity 59%
Rainfall 0.00 in
Snow Depth Not available.
UV 5 out of 12
Pollen 10.30 out of 12
Air Quality Not available.
Flu Activity Not available.
METAR KORH 301654Z 28007KT 10SM BKN080 26/16 A3010 RMK AO2 SLP188 T02610156

10-Day Weather Forecast

×

Almanac

Astronomy

Aug. 30, 2015 Rise Set
Actual Time
Civil Twilight
Nautical Twilight
Astronomical Twilight
Moon
Length of Visible Light
Length of Day
Tomorrow will be .
, % of the Moon is Illuminated

Today's Extremes

State Highs State Lows

Community

WunderPhotos

Upload Photos

1,851,014 photos uploaded!

WunderBlogs® & News

Nearby

Air Quality

  Air Quality AQ Index Pollutant
Not available.

Snow Depth

Station Depth Elevation

Earthquake Activity

City Distance Mag. Time & Date
Minimum magnitude displayed is 2.5.

Coastal Water Temperatures

Place Temperature

Stations

Nearby Weather Stations

Station Location Temp. Windchill Dew Point Humidity Wind Precip. Elev Updated Type